createdAt,value
2023-04-09T00:01:12.658Z,56.00
2023-04-09T00:03:42.354Z,56.33
2023-04-09T00:06:13.400Z,54.00
2023-04-09T00:08:42.170Z,59.50
2023-04-09T00:11:10.084Z,54.00
2023-04-09T00:13:39.823Z,51.00
2023-04-09T00:16:09.477Z,56.50
2023-04-09T00:18:38.370Z,50.50
2023-04-09T00:21:08.877Z,56.50
2023-04-09T00:23:37.861Z,51.50
2023-04-09T00:26:06.689Z,54.00
2023-04-09T00:28:36.315Z,54.00
2023-04-09T00:31:04.307Z,57.00
2023-04-09T00:33:33.067Z,50.50
2023-04-09T00:36:02.003Z,59.00
2023-04-09T00:38:30.750Z,53.50
2023-04-09T00:40:58.745Z,55.50
2023-04-09T00:43:28.432Z,65.67
2023-04-09T00:45:57.332Z,58.50
2023-04-09T00:48:25.471Z,61.00
2023-04-09T00:50:54.434Z,60.00
2023-04-09T00:53:22.460Z,53.50
2023-04-09T00:55:51.389Z,56.50
2023-04-09T00:58:20.230Z,57.50
2023-04-09T01:00:49.083Z,61.50
2023-04-09T01:03:17.997Z,65.50
2023-04-09T01:06:11.529Z,62.67
2023-04-09T01:09:02.928Z,62.00
2023-04-09T01:12:10.822Z,60.00
2023-04-09T01:15:10.224Z,59.00
2023-04-09T01:17:47.591Z,59.50
2023-04-09T01:20:44.328Z,50.00
2023-04-09T01:23:48.373Z,57.00
2023-04-09T01:26:53.428Z,56.50
2023-04-09T01:29:24.287Z,56.50
2023-04-09T01:31:54.295Z,51.00
2023-04-09T01:34:24.339Z,61.33
2023-04-09T01:36:59.201Z,53.50
2023-04-09T01:39:28.433Z,56.00
2023-04-09T01:41:58.366Z,56.50
2023-04-09T01:44:29.275Z,51.67
2023-04-09T01:46:59.841Z,58.00
2023-04-09T01:49:29.586Z,48.50
2023-04-09T01:51:58.646Z,56.00
2023-04-09T01:54:27.447Z,55.50
2023-04-09T01:56:58.939Z,59.00
2023-04-09T01:59:27.835Z,63.50
2023-04-09T02:02:06.569Z,57.00
2023-04-09T02:04:44.603Z,60.00
2023-04-09T02:07:27.657Z,71.33
2023-04-09T02:10:00.042Z,76.33
2023-04-09T02:12:34.310Z,68.00
2023-04-09T02:15:04.763Z,71.00
2023-04-09T02:17:33.931Z,64.50
2023-04-09T02:20:03.828Z,72.00
2023-04-09T02:22:33.442Z,70.67
2023-04-09T02:25:03.107Z,60.67
2023-04-09T02:27:32.724Z,67.33
2023-04-09T02:30:01.527Z,67.00
2023-04-09T02:32:30.463Z,56.00
2023-04-09T02:34:59.234Z,63.00
2023-04-09T02:37:28.974Z,109.33
2023-04-09T02:39:58.604Z,83.00
2023-04-09T02:42:28.213Z,66.67
2023-04-09T02:44:56.975Z,56.50
2023-04-09T02:47:27.454Z,65.00
2023-04-09T02:49:57.093Z,66.33
2023-04-09T02:52:26.721Z,57.33
2023-04-09T02:54:54.613Z,55.00
2023-04-09T02:57:23.406Z,54.50
2023-04-09T02:59:52.977Z,57.67
2023-04-09T03:02:21.965Z,54.50
2023-04-09T03:04:51.196Z,61.00
2023-04-09T03:07:20.806Z,67.67
2023-04-09T03:09:49.574Z,46.50
2023-04-09T03:12:18.322Z,54.50
2023-04-09T03:14:47.150Z,60.50
2023-04-09T03:17:15.997Z,49.00
2023-04-09T03:19:43.882Z,49.50
2023-04-09T03:22:13.416Z,57.00
2023-04-09T03:24:42.318Z,54.50
2023-04-09T03:27:11.483Z,58.00
2023-04-09T03:29:40.297Z,56.50
2023-04-09T03:32:08.202Z,58.00
2023-04-09T03:34:37.737Z,59.67
2023-04-09T03:37:06.501Z,54.00
2023-04-09T03:39:34.398Z,57.00
2023-04-09T03:42:03.238Z,57.50
2023-04-09T03:44:32.060Z,56.00
2023-04-09T03:47:00.922Z,51.00
2023-04-09T03:49:29.762Z,39.67
2023-04-09T03:51:58.566Z,52.50
2023-04-09T03:54:30.946Z,54.00
2023-04-09T03:56:58.820Z,50.00
2023-04-09T03:59:26.647Z,52.50
2023-04-09T04:01:55.518Z,57.00
2023-04-09T04:04:24.416Z,56.00
2023-04-09T04:06:52.346Z,57.50
2023-04-09T04:09:21.110Z,54.00
2023-04-09T04:11:50.809Z,60.67
2023-04-09T04:14:20.458Z,60.67
2023-04-09T04:16:48.353Z,61.50
2023-04-09T04:19:17.185Z,61.00
2023-04-09T04:21:46.759Z,75.00
2023-04-09T04:24:16.334Z,74.67
2023-04-09T04:26:45.172Z,66.50
2023-04-09T04:29:14.013Z,61.50
2023-04-09T04:31:43.827Z,63.00
2023-04-09T04:34:13.382Z,59.00
2023-04-09T04:36:42.127Z,54.00
2023-04-09T04:39:10.942Z,52.00
2023-04-09T04:41:39.713Z,52.00
2023-04-09T04:44:08.482Z,51.50
2023-04-09T04:46:37.291Z,55.50
2023-04-09T04:49:06.151Z,55.50
2023-04-09T04:51:34.913Z,55.00
2023-04-09T04:54:04.619Z,61.33
2023-04-09T04:56:34.263Z,60.67
2023-04-09T04:59:03.860Z,58.33
2023-04-09T05:01:33.634Z,81.00
2023-04-09T05:04:04.396Z,78.33
2023-04-09T05:06:34.101Z,63.00
2023-04-09T05:09:02.861Z,57.00
2023-04-09T05:11:32.406Z,66.33
2023-04-09T05:14:01.951Z,70.00
2023-04-09T05:16:32.812Z,65.67
2023-04-09T05:19:02.775Z,60.67
2023-04-09T05:21:32.370Z,59.50
2023-04-09T05:24:01.315Z,62.00
2023-04-09T05:26:30.911Z,66.00
2023-04-09T05:28:59.798Z,58.50
2023-04-09T05:31:29.484Z,87.67
2023-04-09T05:33:59.068Z,81.33
2023-04-09T05:36:28.801Z,92.00
2023-04-09T05:38:58.511Z,92.33
2023-04-09T05:41:28.182Z,97.67
2023-04-09T05:44:00.070Z,95.00
2023-04-09T05:46:30.512Z,83.33
2023-04-09T05:49:00.214Z,79.67
2023-04-09T05:51:29.972Z,73.00
2023-04-09T05:53:59.604Z,71.00
2023-04-09T05:56:29.213Z,71.00
2023-04-09T05:58:58.786Z,68.33
2023-04-09T06:01:27.849Z,61.50
2023-04-09T06:03:58.457Z,66.00
2023-04-09T06:06:28.492Z,65.33
2023-04-09T06:08:57.282Z,60.00
2023-04-09T06:11:27.332Z,58.67
2023-04-09T06:13:56.192Z,57.00
2023-04-09T06:16:24.172Z,54.50
2023-04-09T06:18:54.771Z,48.00
2023-04-09T06:21:23.816Z,53.00
2023-04-09T06:23:53.955Z,54.00
2023-04-09T06:26:23.001Z,55.00
2023-04-09T06:28:52.673Z,60.67
2023-04-09T06:31:23.035Z,56.67
2023-04-09T06:33:53.034Z,58.33
2023-04-09T06:36:21.542Z,54.50
2023-04-09T06:38:50.414Z,47.50
2023-04-09T06:41:26.668Z,51.50
2023-04-09T06:43:54.900Z,50.00
2023-04-09T06:46:22.807Z,48.50
2023-04-09T06:48:51.744Z,55.50
2023-04-09T06:51:20.751Z,34.33
2023-04-09T06:53:50.003Z,51.00
2023-04-09T06:56:18.960Z,43.50
2023-04-09T06:58:47.967Z,41.00
2023-04-09T07:01:17.633Z,43.50
2023-04-09T07:03:47.799Z,43.33
2023-04-09T07:06:16.533Z,41.67
2023-04-09T07:08:45.703Z,42.50
2023-04-09T07:11:17.337Z,34.50
2023-04-09T07:13:46.096Z,36.50
2023-04-09T07:16:14.956Z,35.00
2023-04-09T07:18:44.573Z,39.33
2023-04-09T07:21:14.221Z,47.33
2023-04-09T07:23:43.911Z,43.00
2023-04-09T07:26:12.730Z,56.00
2023-04-09T07:28:42.475Z,40.00
2023-04-09T07:31:13.217Z,38.67
2023-04-09T07:33:42.020Z,49.00
2023-04-09T07:36:11.747Z,64.67
2023-04-09T07:38:40.522Z,35.33
2023-04-09T07:41:12.324Z,38.67
2023-04-09T07:43:42.017Z,38.33
2023-04-09T07:46:11.600Z,42.33
2023-04-09T07:48:41.278Z,38.33
2023-04-09T07:51:09.991Z,38.33
2023-04-09T07:53:38.715Z,34.00
2023-04-09T07:56:08.725Z,36.67
2023-04-09T07:58:41.227Z,33.00
2023-04-09T08:01:10.029Z,56.50
2023-04-09T08:03:38.962Z,41.50
2023-04-09T08:06:08.766Z,33.67
2023-04-09T08:08:37.762Z,43.33
2023-04-09T08:11:07.430Z,58.67
2023-04-09T08:13:36.336Z,84.67
2023-04-09T08:16:05.314Z,27.00
2023-04-09T08:18:34.869Z,55.67
2023-04-09T08:21:06.523Z,52.00
2023-04-09T08:23:35.339Z,59.00
2023-04-09T08:26:05.170Z,83.25
2023-04-09T08:28:34.705Z,37.33
2023-04-09T08:31:03.502Z,51.50
2023-04-09T08:33:31.579Z,26.00
2023-04-09T08:36:03.077Z,25.00
2023-04-09T08:38:32.920Z,37.00
2023-04-09T08:41:01.613Z,34.33
2023-04-09T08:43:47.300Z,29.33
2023-04-09T08:46:24.619Z,30.67
2023-04-09T08:48:55.340Z,30.00
2023-04-09T08:51:25.891Z,30.33
2023-04-09T08:54:04.741Z,38.33
2023-04-09T08:56:33.981Z,29.67
2023-04-09T08:59:03.542Z,29.67
2023-04-09T09:01:33.554Z,25.00
2023-04-09T09:04:09.021Z,34.00
2023-04-09T09:06:41.320Z,27.67
2023-04-09T09:09:17.273Z,30.33
2023-04-09T09:11:50.520Z,30.00
2023-04-09T09:14:20.971Z,37.50
2023-04-09T09:16:58.857Z,39.67
2023-04-09T09:19:27.561Z,39.50
2023-04-09T09:22:06.816Z,39.00
2023-04-09T09:24:50.797Z,25.00
2023-04-09T09:27:39.804Z,30.67
2023-04-09T09:30:10.710Z,29.33
2023-04-09T09:32:40.260Z,51.33
2023-04-09T09:35:09.652Z,34.33
2023-04-09T09:37:39.246Z,34.00
2023-04-09T09:40:09.689Z,34.33
2023-04-09T09:42:54.733Z,31.67
2023-04-09T09:45:26.323Z,34.00
2023-04-09T09:47:55.118Z,34.33
2023-04-09T09:50:25.996Z,37.67
2023-04-09T09:53:07.296Z,38.50
2023-04-09T09:55:44.105Z,34.33
2023-04-09T09:58:28.732Z,38.67
2023-04-09T10:00:59.500Z,41.00
2023-04-09T10:03:33.237Z,41.00
2023-04-09T10:06:04.854Z,35.33
2023-04-09T10:08:36.239Z,34.33
2023-04-09T10:11:08.020Z,48.50
2023-04-09T10:13:47.085Z,31.00
2023-04-09T10:16:17.757Z,27.50
2023-04-09T10:18:47.428Z,44.67
2023-04-09T10:21:42.882Z,39.33
2023-04-09T10:24:12.772Z,49.00
2023-04-09T10:26:47.240Z,65.00
2023-04-09T10:29:18.727Z,32.33
2023-04-09T10:32:07.318Z,34.00
2023-04-09T10:34:42.972Z,32.33
2023-04-09T10:37:22.727Z,38.33
2023-04-09T10:39:53.033Z,40.00
2023-04-09T10:42:35.118Z,35.00
2023-04-09T10:45:11.906Z,42.33
2023-04-09T10:47:43.817Z,38.67
2023-04-09T10:50:28.165Z,36.67
2023-04-09T10:53:00.425Z,39.67
2023-04-09T10:55:42.666Z,37.67
2023-04-09T10:58:13.814Z,66.00
2023-04-09T11:00:46.856Z,44.67
2023-04-09T11:03:25.320Z,32.67
2023-04-09T11:06:11.897Z,33.67
2023-04-09T11:08:41.896Z,41.33
2023-04-09T11:11:11.748Z,33.33
2023-04-09T11:13:43.330Z,34.33
2023-04-09T11:16:12.983Z,43.50
2023-04-09T11:18:56.369Z,34.00
2023-04-09T11:21:29.354Z,33.67
2023-04-09T11:23:57.935Z,5.00
2023-04-09T11:26:37.515Z,37.67
2023-04-09T11:29:10.361Z,39.00
2023-04-09T11:31:39.952Z,43.00
2023-04-09T11:34:12.689Z,35.50
2023-04-09T11:36:42.231Z,39.67
2023-04-09T11:39:11.057Z,33.67
2023-04-09T11:41:40.946Z,48.33
2023-04-09T11:44:09.791Z,37.00
2023-04-09T11:46:40.356Z,40.00
2023-04-09T11:49:10.585Z,54.00
2023-04-09T11:51:40.459Z,53.67
2023-04-09T11:54:09.847Z,38.67
2023-04-09T11:56:38.568Z,31.33
2023-04-09T11:59:07.413Z,40.00
2023-04-09T12:01:36.408Z,46.50
2023-04-09T12:04:06.039Z,33.33
2023-04-09T12:06:42.856Z,38.00
2023-04-09T12:09:14.298Z,47.50
2023-04-09T12:11:46.595Z,43.00
2023-04-09T12:14:17.852Z,38.00
2023-04-09T12:16:52.957Z,34.67
2023-04-09T12:19:25.646Z,34.33
2023-04-09T12:21:58.430Z,30.33
2023-04-09T12:24:29.113Z,31.67
2023-04-09T12:26:58.152Z,35.33
2023-04-09T12:29:27.152Z,32.67
2023-04-09T12:31:56.290Z,31.67
2023-04-09T12:34:27.472Z,39.33
2023-04-09T12:36:56.340Z,35.33
2023-04-09T12:39:26.384Z,35.00
2023-04-09T12:41:55.085Z,33.67
2023-04-09T12:44:24.571Z,35.00
2023-04-09T12:46:53.348Z,35.00
2023-04-09T12:49:22.917Z,37.00
2023-04-09T12:51:51.986Z,37.00
2023-04-09T12:54:20.826Z,38.50
2023-04-09T12:56:50.596Z,43.33
2023-04-09T12:59:26.703Z,31.33
2023-04-09T13:01:56.495Z,35.00
2023-04-09T13:04:25.517Z,28.33
2023-04-09T13:06:55.328Z,35.33
2023-04-09T13:09:24.022Z,38.67
2023-04-09T13:11:52.835Z,45.50
2023-04-09T13:14:21.605Z,41.50
2023-04-09T13:16:52.978Z,59.33
2023-04-09T13:19:21.733Z,35.00
2023-04-09T13:21:50.452Z,35.33
2023-04-09T13:24:20.049Z,35.33
2023-04-09T13:26:48.892Z,39.67
2023-04-09T13:29:18.158Z,41.67
2023-04-09T13:31:47.704Z,38.67
2023-04-09T13:34:16.706Z,32.33
2023-04-09T13:36:45.499Z,32.67
2023-04-09T13:39:14.217Z,49.50
2023-04-09T13:41:44.457Z,37.00
2023-04-09T13:44:14.046Z,50.33
2023-04-09T13:46:42.797Z,38.00
2023-04-09T13:49:12.789Z,33.67
2023-04-09T13:51:41.738Z,37.67
2023-04-09T13:54:11.491Z,39.33
2023-04-09T13:56:41.571Z,42.00
2023-04-09T13:59:10.256Z,44.00
2023-04-09T14:01:39.024Z,34.00
2023-04-09T14:04:09.650Z,46.33
2023-04-09T14:06:38.422Z,39.33
2023-04-09T14:09:07.118Z,37.67
2023-04-09T14:11:36.839Z,38.33
2023-04-09T14:14:06.477Z,55.00
2023-04-09T14:16:35.203Z,40.33
2023-04-09T14:19:04.003Z,34.00
2023-04-09T14:21:32.775Z,42.33
2023-04-09T14:24:02.002Z,53.00
2023-04-09T14:26:31.726Z,41.67
2023-04-09T14:29:01.243Z,41.67
2023-04-09T14:31:30.146Z,45.00
2023-04-09T14:33:58.964Z,42.50
2023-04-09T14:36:27.998Z,41.33
2023-04-09T14:38:58.187Z,40.67
2023-04-09T14:41:27.375Z,39.33
2023-04-09T14:43:56.246Z,34.33
2023-04-09T14:46:24.989Z,45.00
2023-04-09T14:48:54.945Z,49.00
2023-04-09T14:51:24.615Z,48.33
2023-04-09T14:53:54.116Z,50.33
2023-04-09T14:56:22.890Z,42.33
2023-04-09T14:58:52.398Z,42.00
2023-04-09T15:01:21.575Z,47.00
2023-04-09T15:03:51.439Z,48.67
2023-04-09T15:06:20.576Z,47.33
2023-04-09T15:08:50.131Z,50.67
2023-04-09T15:11:23.057Z,63.00
2023-04-09T15:13:53.141Z,51.33
2023-04-09T15:16:28.415Z,41.33
2023-04-09T15:18:59.344Z,35.33
2023-04-09T15:21:29.008Z,60.33
2023-04-09T15:23:59.327Z,56.33
2023-04-09T15:26:28.232Z,48.00
2023-04-09T15:29:08.408Z,49.67
2023-04-09T15:31:38.493Z,50.33
2023-04-09T15:34:08.983Z,43.00
2023-04-09T15:36:38.414Z,50.00
2023-04-09T15:39:07.976Z,51.00
2023-04-09T15:41:37.540Z,53.00
2023-04-09T15:44:08.534Z,58.33
2023-04-09T15:46:41.441Z,46.00
2023-04-09T15:49:10.680Z,43.00
2023-04-09T15:51:40.241Z,60.00
2023-04-09T15:54:09.288Z,45.00
2023-04-09T15:56:40.465Z,38.33
2023-04-09T15:59:09.421Z,36.00
2023-04-09T16:01:39.190Z,59.00
2023-04-09T16:04:09.265Z,43.00
2023-04-09T16:06:39.654Z,49.00
2023-04-09T16:09:08.484Z,45.50
2023-04-09T16:11:37.770Z,44.00
2023-04-09T16:14:07.674Z,57.33
2023-04-09T16:16:40.204Z,56.33
2023-04-09T16:19:09.785Z,59.67
2023-04-09T16:21:43.958Z,59.33
2023-04-09T16:24:13.993Z,51.33
2023-04-09T16:26:46.019Z,53.00
2023-04-09T16:29:16.668Z,53.67
2023-04-09T16:31:45.466Z,52.50
2023-04-09T16:34:15.025Z,57.33
2023-04-09T16:36:44.870Z,67.00
2023-04-09T16:39:19.544Z,71.75
2023-04-09T16:41:50.919Z,64.67
2023-04-09T16:44:20.527Z,61.00
2023-04-09T16:46:50.190Z,60.67
2023-04-09T16:49:19.763Z,57.00
2023-04-09T16:51:52.019Z,64.33
2023-04-09T16:54:21.502Z,68.67
2023-04-09T16:56:51.158Z,67.33
2023-04-09T16:59:21.360Z,62.00
2023-04-09T17:01:51.999Z,65.00
2023-04-09T17:04:22.187Z,56.67
2023-04-09T17:06:51.804Z,61.67
2023-04-09T17:09:21.348Z,59.00
2023-04-09T17:11:53.166Z,58.67
2023-04-09T17:14:23.096Z,50.67
2023-04-09T17:16:54.087Z,55.33
2023-04-09T17:19:23.672Z,55.67
2023-04-09T17:21:53.437Z,52.00
2023-04-09T17:24:23.159Z,50.67
2023-04-09T17:26:52.069Z,45.00
2023-04-09T17:29:20.842Z,50.50
2023-04-09T17:31:53.437Z,51.00
2023-04-09T17:34:24.334Z,52.67
2023-04-09T17:36:57.580Z,56.00
2023-04-09T17:39:29.602Z,58.33
2023-04-09T17:42:00.825Z,68.67
2023-04-09T17:44:31.567Z,77.00
2023-04-09T17:47:05.323Z,82.67
2023-04-09T17:49:35.764Z,83.33
2023-04-09T17:52:05.394Z,68.33
2023-04-09T17:54:35.928Z,69.67
2023-04-09T17:57:04.911Z,69.00
2023-04-09T17:59:35.985Z,74.33
2023-04-09T18:02:06.101Z,88.33
2023-04-09T18:04:36.369Z,101.33
2023-04-09T18:07:07.154Z,86.33
2023-04-09T18:09:39.297Z,86.33
2023-04-09T18:12:09.268Z,82.25
2023-04-09T18:14:38.946Z,70.67
2023-04-09T18:17:08.562Z,73.00
2023-04-09T18:19:39.193Z,68.67
2023-04-09T18:22:09.039Z,71.00
2023-04-09T18:24:38.684Z,69.67
2023-04-09T18:27:08.485Z,71.00
2023-04-09T18:29:38.126Z,83.00
2023-04-09T18:32:06.645Z,68.00
2023-04-09T18:34:38.350Z,177.25
2023-04-09T18:37:06.397Z,156.50
2023-04-09T18:39:38.058Z,149.43
2023-04-09T18:42:08.175Z,142.33
2023-04-09T18:44:37.958Z,90.00
2023-04-09T18:47:11.690Z,112.25
2023-04-09T18:49:41.542Z,82.00
2023-04-09T18:52:11.282Z,74.67
2023-04-09T18:54:43.134Z,75.67
2023-04-09T18:57:12.770Z,74.00
2023-04-09T18:59:43.612Z,66.67
2023-04-09T19:02:13.368Z,67.00
2023-04-09T19:04:43.171Z,63.00
2023-04-09T19:07:12.808Z,59.67
2023-04-09T19:09:41.923Z,54.00
2023-04-09T19:12:11.602Z,62.33
2023-04-09T19:14:41.266Z,60.33
2023-04-09T19:17:11.973Z,58.33
2023-04-09T19:19:44.458Z,64.33
2023-04-09T19:22:14.112Z,59.50
2023-04-09T19:24:45.090Z,55.00
2023-04-09T19:27:14.364Z,55.50
2023-04-09T19:29:46.408Z,45.67
2023-04-09T19:32:15.206Z,52.50
2023-04-09T19:34:53.962Z,55.00
2023-04-09T19:37:27.449Z,53.00
2023-04-09T19:40:04.704Z,53.00
2023-04-09T19:42:33.596Z,53.50
2023-04-09T19:45:02.516Z,57.50
2023-04-09T19:47:32.490Z,54.33
2023-04-09T19:50:01.672Z,55.50
2023-04-09T19:52:31.211Z,57.67
2023-04-09T19:55:04.583Z,93.29
2023-04-09T19:57:35.177Z,90.33
2023-04-09T20:00:05.856Z,86.67
2023-04-09T20:03:07.245Z,83.00
2023-04-09T20:05:37.118Z,86.67
2023-04-09T20:08:05.406Z,78.00
2023-04-09T20:10:43.005Z,88.33
2023-04-09T20:13:12.585Z,78.67
2023-04-09T20:15:42.256Z,86.67
2023-04-09T20:18:11.659Z,76.00
2023-04-09T20:20:41.366Z,77.00
2023-04-09T20:23:11.042Z,76.67
2023-04-09T20:25:40.552Z,77.00
2023-04-09T20:28:10.251Z,80.67
2023-04-09T20:30:40.074Z,82.33
2023-04-09T20:33:09.860Z,91.00
2023-04-09T20:35:39.609Z,85.00
2023-04-09T20:38:09.270Z,85.00
2023-04-09T20:40:38.976Z,93.67
2023-04-09T20:43:09.598Z,154.25
2023-04-09T20:45:37.651Z,200.00
2023-04-09T20:48:08.537Z,159.50
2023-04-09T20:50:39.160Z,137.75
2023-04-09T20:53:09.114Z,145.67
2023-04-09T20:55:38.990Z,107.00
2023-04-09T20:58:08.720Z,103.00
2023-04-09T21:00:38.427Z,91.33
2023-04-09T21:03:08.639Z,91.67
2023-04-09T21:05:38.447Z,89.33
2023-04-09T21:08:08.164Z,85.67
2023-04-09T21:10:38.707Z,108.25
2023-04-09T21:13:06.601Z,134.50
2023-04-09T21:15:34.548Z,131.00
2023-04-09T21:18:04.364Z,104.33
2023-04-09T21:20:34.042Z,99.00
2023-04-09T21:23:03.708Z,86.67
2023-04-09T21:25:33.404Z,83.00
2023-04-09T21:28:02.993Z,75.00
2023-04-09T21:30:37.720Z,81.00
2023-04-09T21:33:09.409Z,93.00
2023-04-09T21:35:39.298Z,89.00
2023-04-09T21:38:09.208Z,81.67
2023-04-09T21:40:38.836Z,80.33
2023-04-09T21:43:09.066Z,81.33
2023-04-09T21:45:38.724Z,67.33
2023-04-09T21:48:09.443Z,70.00
2023-04-09T21:50:39.032Z,69.67
2023-04-09T21:53:08.675Z,67.67
2023-04-09T21:55:39.134Z,72.33
2023-04-09T21:58:09.512Z,73.33
2023-04-09T22:00:38.873Z,65.00
2023-04-09T22:03:08.805Z,61.00
2023-04-09T22:05:38.698Z,67.33
2023-04-09T22:08:08.336Z,71.33
2023-04-09T22:10:37.147Z,66.50
2023-04-09T22:13:07.413Z,64.67
2023-04-09T22:15:36.991Z,68.00
2023-04-09T22:18:06.593Z,68.00
2023-04-09T22:20:37.094Z,69.67
2023-04-09T22:23:07.321Z,67.00
2023-04-09T22:25:37.107Z,68.67
2023-04-09T22:28:06.780Z,69.67
2023-04-09T22:30:36.649Z,71.33
2023-04-09T22:33:06.320Z,72.00
2023-04-09T22:35:36.620Z,65.33
2023-04-09T22:38:07.320Z,67.33
2023-04-09T22:40:37.074Z,70.00
2023-04-09T22:43:06.638Z,70.33
2023-04-09T22:45:36.978Z,70.00
2023-04-09T22:48:07.860Z,67.00
2023-04-09T22:50:37.751Z,70.00
2023-04-09T22:53:07.371Z,66.33
2023-04-09T22:55:38.446Z,67.33
2023-04-09T22:58:08.070Z,68.33
2023-04-09T23:00:37.682Z,69.00
2023-04-09T23:03:07.369Z,71.50
2023-04-09T23:05:37.836Z,66.67
2023-04-09T23:08:07.494Z,65.67
2023-04-09T23:10:37.268Z,70.33
2023-04-09T23:13:07.056Z,64.67
2023-04-09T23:15:38.318Z,64.00
2023-04-09T23:18:07.925Z,66.33
2023-04-09T23:20:37.722Z,68.67
2023-04-09T23:23:06.471Z,69.00
2023-04-09T23:25:36.064Z,80.33
2023-04-09T23:28:05.795Z,76.33
2023-04-09T23:30:35.432Z,83.00
2023-04-09T23:33:05.160Z,80.00
2023-04-09T23:35:34.891Z,79.67
2023-04-09T23:38:04.517Z,79.33
2023-04-09T23:40:34.160Z,72.00
2023-04-09T23:43:03.836Z,73.33
2023-04-09T23:45:33.485Z,75.67
2023-04-09T23:48:06.407Z,78.67
2023-04-09T23:50:40.759Z,77.67
2023-04-09T23:53:11.185Z,79.67
2023-04-09T23:55:41.926Z,78.67
2023-04-09T23:58:11.917Z,72.00
